createdAt,value
2023-03-29T00:01:46.083Z,67.43
2023-03-29T00:04:16.034Z,67.52
2023-03-29T00:06:48.038Z,67.44
2023-03-29T00:09:16.666Z,67.50
2023-03-29T00:11:45.603Z,67.48
2023-03-29T00:14:14.277Z,67.61
2023-03-29T00:16:44.884Z,67.57
2023-03-29T00:19:13.311Z,67.61
2023-03-29T00:21:41.650Z,67.63
2023-03-29T00:24:10.053Z,67.71
2023-03-29T00:26:38.671Z,67.78
2023-03-29T00:29:06.886Z,67.68
2023-03-29T00:31:35.277Z,67.83
2023-03-29T00:34:03.637Z,67.82
2023-03-29T00:36:31.933Z,67.90
2023-03-29T00:39:00.229Z,67.84
2023-03-29T00:41:29.490Z,67.81
2023-03-29T00:44:03.762Z,67.92
2023-03-29T00:46:32.575Z,67.94
2023-03-29T00:49:09.756Z,67.99
2023-03-29T00:51:41.643Z,67.97
2023-03-29T00:54:15.348Z,68.00
2023-03-29T00:56:48.231Z,67.94
2023-03-29T00:59:21.860Z,68.05
2023-03-29T01:01:54.963Z,68.07
2023-03-29T01:04:29.661Z,68.15
2023-03-29T01:07:07.530Z,68.24
2023-03-29T01:09:38.374Z,68.20
2023-03-29T01:12:17.352Z,68.22
2023-03-29T01:14:58.836Z,68.27
2023-03-29T01:17:27.277Z,68.25
2023-03-29T01:20:14.241Z,68.29
2023-03-29T01:23:04.544Z,68.34
2023-03-29T01:25:54.411Z,68.32
2023-03-29T01:28:30.046Z,68.38
2023-03-29T01:31:09.360Z,68.40
2023-03-29T01:33:52.387Z,68.44
2023-03-29T01:36:35.166Z,68.43
2023-03-29T01:39:06.197Z,68.60
2023-03-29T01:41:48.458Z,68.67
2023-03-29T01:44:27.728Z,68.75
2023-03-29T01:47:21.252Z,68.70
2023-03-29T01:50:13.295Z,68.73
2023-03-29T01:52:54.123Z,68.73
2023-03-29T01:55:33.532Z,68.72
2023-03-29T01:58:05.204Z,68.69
2023-03-29T02:00:36.499Z,68.63
2023-03-29T02:03:08.512Z,68.58
2023-03-29T02:05:39.758Z,68.51
2023-03-29T02:08:11.367Z,68.57
2023-03-29T02:10:40.794Z,68.52
2023-03-29T02:13:09.014Z,68.55
2023-03-29T02:15:37.685Z,68.65
2023-03-29T02:18:07.052Z,68.66
2023-03-29T02:20:42.079Z,68.71
2023-03-29T02:23:24.716Z,68.62
2023-03-29T02:25:54.379Z,68.75
2023-03-29T02:28:24.975Z,68.69
2023-03-29T02:31:13.138Z,68.71
2023-03-29T02:33:52.311Z,68.77
2023-03-29T02:36:29.636Z,68.78
2023-03-29T02:39:00.955Z,68.79
2023-03-29T02:41:29.262Z,68.74
2023-03-29T02:43:59.481Z,68.78
2023-03-29T02:46:28.518Z,68.68
2023-03-29T02:48:58.964Z,68.76
2023-03-29T02:51:34.266Z,68.71
2023-03-29T02:54:21.983Z,68.63
2023-03-29T02:56:57.947Z,68.94
2023-03-29T02:59:27.466Z,68.89
2023-03-29T03:01:56.019Z,68.81
2023-03-29T03:04:25.725Z,68.90
2023-03-29T03:06:54.459Z,68.86
2023-03-29T03:09:22.790Z,68.70
2023-03-29T03:11:52.127Z,68.65
2023-03-29T03:14:23.155Z,68.74
2023-03-29T03:16:53.056Z,68.72
2023-03-29T03:19:22.627Z,68.68
2023-03-29T03:21:51.284Z,68.81
2023-03-29T03:24:19.569Z,68.71
2023-03-29T03:26:47.829Z,68.76
2023-03-29T03:29:16.520Z,68.64
2023-03-29T03:31:45.182Z,68.73
2023-03-29T03:34:13.479Z,68.75
2023-03-29T03:36:41.697Z,68.74
2023-03-29T03:39:10.079Z,68.71
2023-03-29T03:41:38.453Z,68.63
2023-03-29T03:44:07.082Z,68.56
2023-03-29T03:46:35.441Z,68.78
2023-03-29T03:49:04.788Z,68.73
2023-03-29T03:51:33.067Z,68.72
2023-03-29T03:54:01.366Z,68.67
2023-03-29T03:56:30.082Z,68.82
2023-03-29T03:58:58.631Z,68.69
2023-03-29T04:01:27.612Z,68.87
2023-03-29T04:03:56.098Z,68.72
2023-03-29T04:06:25.645Z,68.90
2023-03-29T04:08:53.950Z,68.82
2023-03-29T04:11:22.242Z,68.84
2023-03-29T04:13:50.616Z,68.82
2023-03-29T04:16:18.906Z,68.94
2023-03-29T04:18:47.486Z,68.81
2023-03-29T04:21:17.836Z,68.76
2023-03-29T04:23:49.095Z,68.86
2023-03-29T04:26:18.318Z,69.08
2023-03-29T04:28:46.711Z,68.77
2023-03-29T04:31:15.617Z,68.96
2023-03-29T04:33:46.943Z,69.18
2023-03-29T04:36:16.212Z,69.14
2023-03-29T04:38:47.330Z,69.28
2023-03-29T04:41:16.239Z,69.02
2023-03-29T04:43:46.850Z,69.20
2023-03-29T04:46:15.657Z,69.17
2023-03-29T04:48:44.162Z,69.17
2023-03-29T04:51:12.952Z,69.32
2023-03-29T04:53:41.966Z,69.20
2023-03-29T04:56:14.553Z,69.43
2023-03-29T04:58:44.474Z,69.52
2023-03-29T05:01:12.891Z,69.49
2023-03-29T05:03:41.399Z,69.35
2023-03-29T05:06:12.221Z,69.34
2023-03-29T05:08:41.858Z,69.21
2023-03-29T05:11:11.856Z,69.38
2023-03-29T05:13:40.646Z,69.34
2023-03-29T05:16:11.382Z,69.52
2023-03-29T05:18:39.751Z,69.13
2023-03-29T05:21:08.047Z,69.21
2023-03-29T05:23:36.396Z,68.95
2023-03-29T05:26:05.402Z,69.32
2023-03-29T05:28:33.968Z,69.22
2023-03-29T05:31:05.982Z,69.39
2023-03-29T05:33:35.715Z,69.49
2023-03-29T05:36:05.908Z,69.12
2023-03-29T05:38:35.082Z,69.29
2023-03-29T05:41:03.928Z,69.43
2023-03-29T05:43:33.723Z,69.45
2023-03-29T05:46:02.145Z,69.42
2023-03-29T05:48:30.375Z,69.61
2023-03-29T05:50:59.316Z,69.03
2023-03-29T05:53:28.506Z,69.07
2023-03-29T05:55:56.733Z,69.10
2023-03-29T05:58:26.847Z,69.11
2023-03-29T06:00:55.442Z,69.31
2023-03-29T06:03:28.336Z,69.48
2023-03-29T06:06:02.588Z,69.44
2023-03-29T06:08:32.524Z,69.70
2023-03-29T06:11:04.616Z,70.10
2023-03-29T06:13:34.547Z,70.21
2023-03-29T06:16:04.556Z,70.20
2023-03-29T06:18:33.604Z,70.15
2023-03-29T06:21:03.141Z,70.29
2023-03-29T06:23:32.259Z,69.74
2023-03-29T06:26:00.673Z,70.43
2023-03-29T06:28:29.071Z,70.33
2023-03-29T06:31:03.835Z,70.40
2023-03-29T06:33:34.301Z,70.26
2023-03-29T06:36:02.613Z,70.28
2023-03-29T06:38:31.245Z,70.37
2023-03-29T06:41:04.567Z,70.46
2023-03-29T06:43:33.453Z,70.27
2023-03-29T06:46:02.079Z,70.39
2023-03-29T06:48:30.670Z,70.39
2023-03-29T06:50:58.926Z,69.73
2023-03-29T06:53:28.343Z,69.79
2023-03-29T06:55:56.639Z,69.33
2023-03-29T06:58:25.013Z,69.43
2023-03-29T07:00:54.084Z,69.57
2023-03-29T07:03:24.493Z,69.56
2023-03-29T07:05:53.199Z,69.11
2023-03-29T07:08:22.635Z,69.28
2023-03-29T07:10:53.593Z,68.94
2023-03-29T07:13:23.892Z,68.92
2023-03-29T07:15:52.718Z,68.66
2023-03-29T07:18:21.385Z,68.88
2023-03-29T07:20:50.122Z,68.70
2023-03-29T07:23:18.562Z,68.80
2023-03-29T07:25:47.261Z,68.78
2023-03-29T07:28:15.502Z,69.10
2023-03-29T07:30:43.800Z,68.83
2023-03-29T07:33:12.583Z,69.22
2023-03-29T07:35:43.962Z,69.37
2023-03-29T07:38:12.377Z,69.25
2023-03-29T07:40:41.004Z,69.18
2023-03-29T07:43:11.222Z,69.10
2023-03-29T07:45:42.672Z,69.00
2023-03-29T07:48:11.179Z,69.00
2023-03-29T07:50:39.500Z,68.79
2023-03-29T07:53:07.742Z,68.85
2023-03-29T07:55:36.155Z,68.88
2023-03-29T07:58:04.555Z,68.76
2023-03-29T08:00:34.347Z,68.88
2023-03-29T08:03:04.041Z,68.79
2023-03-29T08:05:40.678Z,68.70
2023-03-29T08:08:10.224Z,68.69
2023-03-29T08:10:39.693Z,68.65
2023-03-29T08:13:09.774Z,68.52
2023-03-29T08:15:39.635Z,68.47
2023-03-29T08:18:08.534Z,68.55
2023-03-29T08:20:37.037Z,68.61
2023-03-29T08:23:05.418Z,68.46
2023-03-29T08:25:35.372Z,68.40
2023-03-29T08:28:03.828Z,68.43
2023-03-29T08:30:32.153Z,68.30
2023-03-29T08:33:00.518Z,68.34
2023-03-29T08:35:28.875Z,68.31
2023-03-29T08:37:57.101Z,68.40
2023-03-29T08:40:31.444Z,68.24
2023-03-29T08:43:02.400Z,68.12
2023-03-29T08:45:39.740Z,68.06
2023-03-29T08:48:28.992Z,68.32
2023-03-29T08:51:06.100Z,68.14
2023-03-29T08:53:38.749Z,68.49
2023-03-29T08:56:15.545Z,68.31
2023-03-29T08:58:45.900Z,68.07
2023-03-29T09:01:14.599Z,68.22
2023-03-29T09:04:14.998Z,67.96
2023-03-29T09:06:43.288Z,68.34
2023-03-29T09:09:33.124Z,68.32
2023-03-29T09:12:16.844Z,68.15
2023-03-29T09:14:57.370Z,68.65
2023-03-29T09:17:32.651Z,68.26
2023-03-29T09:20:27.755Z,68.27
2023-03-29T09:23:07.130Z,67.90
2023-03-29T09:25:53.432Z,68.12
2023-03-29T09:28:47.841Z,68.43
2023-03-29T09:31:30.439Z,68.01
2023-03-29T09:34:14.380Z,67.84
2023-03-29T09:36:43.537Z,67.72
2023-03-29T09:39:14.700Z,68.23
2023-03-29T09:41:50.830Z,67.73
2023-03-29T09:44:31.808Z,67.93
2023-03-29T09:47:09.281Z,67.59
2023-03-29T09:49:42.375Z,67.71
2023-03-29T09:52:14.536Z,67.15
2023-03-29T09:54:43.572Z,67.31
2023-03-29T09:57:14.150Z,67.05
2023-03-29T09:59:44.804Z,66.74
2023-03-29T10:02:14.682Z,66.47
2023-03-29T10:04:43.171Z,66.74
2023-03-29T10:07:20.967Z,66.88
2023-03-29T10:09:52.196Z,66.58
2023-03-29T10:12:21.077Z,66.07
2023-03-29T10:14:54.023Z,66.21
2023-03-29T10:17:25.578Z,65.75
2023-03-29T10:20:09.670Z,65.67
2023-03-29T10:22:40.742Z,65.86
2023-03-29T10:25:18.589Z,65.57
2023-03-29T10:27:48.183Z,65.60
2023-03-29T10:30:23.328Z,65.91
2023-03-29T10:33:00.414Z,65.74
2023-03-29T10:35:33.975Z,65.62
2023-03-29T10:38:07.888Z,65.33
2023-03-29T10:40:51.992Z,65.52
2023-03-29T10:43:20.279Z,65.73
2023-03-29T10:45:51.150Z,66.11
2023-03-29T10:48:35.048Z,65.79
2023-03-29T10:51:08.272Z,65.36
2023-03-29T10:53:38.416Z,65.77
2023-03-29T10:56:15.465Z,65.76
2023-03-29T10:59:05.405Z,65.56
2023-03-29T11:02:00.371Z,65.24
2023-03-29T11:04:47.862Z,65.66
2023-03-29T11:07:34.855Z,65.22
2023-03-29T11:10:48.436Z,65.52
2023-03-29T11:13:22.139Z,65.48
2023-03-29T11:16:02.864Z,65.26
2023-03-29T11:18:45.978Z,64.97
2023-03-29T11:21:41.857Z,64.57
2023-03-29T11:24:22.186Z,64.71
2023-03-29T11:27:13.276Z,64.19
2023-03-29T11:29:49.289Z,64.32
2023-03-29T11:32:34.856Z,64.59
2023-03-29T11:35:25.019Z,64.08
2023-03-29T11:38:02.374Z,63.97
2023-03-29T11:40:59.607Z,64.02
2023-03-29T11:43:32.343Z,63.60
2023-03-29T11:46:22.202Z,63.58
2023-03-29T11:49:12.186Z,62.89
2023-03-29T11:51:57.236Z,62.80
2023-03-29T11:54:45.975Z,62.52
2023-03-29T11:57:40.774Z,62.68
2023-03-29T12:00:58.646Z,62.88
2023-03-29T12:04:01.989Z,62.94
2023-03-29T12:06:41.635Z,62.41
2023-03-29T12:09:26.800Z,62.49
2023-03-29T12:12:03.496Z,61.97
2023-03-29T12:14:49.739Z,61.72
2023-03-29T12:17:24.445Z,62.19
2023-03-29T12:20:05.500Z,61.98
2023-03-29T12:22:34.117Z,61.44
2023-03-29T12:25:06.961Z,60.81
2023-03-29T12:28:03.530Z,60.82
2023-03-29T12:30:59.610Z,60.37
2023-03-29T12:34:00.591Z,60.02
2023-03-29T12:37:00.659Z,59.69
2023-03-29T12:39:31.237Z,59.68
2023-03-29T12:42:25.626Z,59.34
2023-03-29T12:45:01.886Z,59.43
2023-03-29T12:47:43.304Z,58.88
2023-03-29T12:50:35.733Z,58.25
2023-03-29T12:53:08.351Z,57.86
2023-03-29T12:55:43.796Z,58.41
2023-03-29T12:58:39.799Z,58.18
2023-03-29T13:01:22.056Z,57.66
2023-03-29T13:03:55.928Z,57.04
2023-03-29T13:06:32.093Z,56.33
2023-03-29T13:09:02.133Z,56.37
2023-03-29T13:11:41.555Z,56.52
2023-03-29T13:14:21.986Z,57.00
2023-03-29T13:16:50.569Z,56.84
2023-03-29T13:19:49.860Z,56.36
2023-03-29T13:22:24.580Z,56.15
2023-03-29T13:25:16.383Z,55.61
2023-03-29T13:27:52.773Z,55.37
2023-03-29T13:30:33.566Z,55.19
2023-03-29T13:33:20.139Z,55.02
2023-03-29T13:36:16.781Z,54.55
2023-03-29T13:38:52.581Z,54.83
2023-03-29T13:41:29.110Z,55.05
2023-03-29T13:43:58.969Z,55.04
2023-03-29T13:46:41.696Z,55.17
2023-03-29T13:49:20.663Z,55.24
2023-03-29T13:52:16.652Z,55.17
2023-03-29T13:55:07.558Z,55.12
2023-03-29T13:57:49.693Z,54.86
2023-03-29T14:00:29.231Z,54.80
2023-03-29T14:03:05.501Z,54.60
2023-03-29T14:05:44.415Z,54.71
2023-03-29T14:08:23.715Z,54.51
2023-03-29T14:10:53.831Z,54.29
2023-03-29T14:13:25.403Z,54.51
2023-03-29T14:15:57.567Z,54.11
2023-03-29T14:18:28.249Z,53.99
2023-03-29T14:20:57.045Z,54.26
2023-03-29T14:23:30.464Z,54.14
2023-03-29T14:26:19.146Z,54.13
2023-03-29T14:28:48.987Z,54.05
2023-03-29T14:31:21.069Z,54.21
2023-03-29T14:33:57.756Z,54.36
2023-03-29T14:36:27.848Z,54.38
2023-03-29T14:39:11.675Z,54.31
2023-03-29T14:41:42.544Z,54.27
2023-03-29T14:44:14.151Z,54.47
2023-03-29T14:46:44.448Z,54.30
2023-03-29T14:49:16.897Z,54.21
2023-03-29T14:51:47.008Z,54.04
2023-03-29T14:54:22.502Z,54.20
2023-03-29T14:56:51.817Z,54.36
2023-03-29T14:59:39.170Z,54.34
2023-03-29T15:02:28.832Z,54.21
2023-03-29T15:05:00.172Z,54.18
2023-03-29T15:07:30.096Z,54.51
2023-03-29T15:09:59.651Z,54.58
2023-03-29T15:12:32.799Z,54.76
2023-03-29T15:15:02.871Z,54.97
2023-03-29T15:17:51.135Z,55.33
2023-03-29T15:20:30.092Z,55.24
2023-03-29T15:23:09.933Z,55.28
2023-03-29T15:25:39.682Z,55.51
2023-03-29T15:28:28.503Z,55.07
2023-03-29T15:31:12.182Z,54.91
2023-03-29T15:33:41.925Z,55.23
2023-03-29T15:36:12.729Z,55.59
2023-03-29T15:38:45.142Z,55.60
2023-03-29T15:41:14.793Z,55.73
2023-03-29T15:43:43.538Z,55.44
2023-03-29T15:46:14.930Z,55.42
2023-03-29T15:48:43.710Z,55.54
2023-03-29T15:51:12.824Z,55.62
2023-03-29T15:53:41.411Z,55.76
2023-03-29T15:56:16.043Z,56.05
2023-03-29T15:58:44.976Z,56.36
2023-03-29T16:01:39.737Z,56.67
2023-03-29T16:04:14.528Z,56.66
2023-03-29T16:06:45.208Z,56.71
2023-03-29T16:09:13.486Z,56.98
2023-03-29T16:11:43.820Z,57.01
2023-03-29T16:14:17.019Z,57.33
2023-03-29T16:16:45.334Z,57.42
2023-03-29T16:19:13.732Z,57.71
2023-03-29T16:21:43.381Z,57.67
2023-03-29T16:24:17.845Z,57.50
2023-03-29T16:26:47.216Z,57.63
2023-03-29T16:29:17.513Z,57.84
2023-03-29T16:31:47.493Z,57.83
2023-03-29T16:34:16.479Z,57.80
2023-03-29T16:36:45.962Z,57.84
2023-03-29T16:39:15.300Z,57.99
2023-03-29T16:41:45.388Z,58.04
2023-03-29T16:44:15.537Z,58.11
2023-03-29T16:46:45.002Z,58.10
2023-03-29T16:49:18.266Z,58.35
2023-03-29T16:51:47.565Z,58.31
2023-03-29T16:54:17.477Z,58.52
2023-03-29T16:56:45.972Z,58.61
2023-03-29T16:59:14.379Z,58.63
2023-03-29T17:01:42.997Z,58.71
2023-03-29T17:04:11.782Z,58.83
2023-03-29T17:06:39.977Z,58.92
2023-03-29T17:09:09.798Z,59.02
2023-03-29T17:11:38.225Z,59.01
2023-03-29T17:14:07.165Z,59.10
2023-03-29T17:16:36.009Z,59.11
2023-03-29T17:19:04.449Z,59.26
2023-03-29T17:21:32.666Z,59.20
2023-03-29T17:24:01.060Z,59.36
2023-03-29T17:26:29.362Z,59.36
2023-03-29T17:28:57.762Z,59.33
2023-03-29T17:31:26.369Z,59.46
2023-03-29T17:33:55.237Z,59.50
2023-03-29T17:36:25.272Z,59.55
2023-03-29T17:39:02.456Z,59.64
2023-03-29T17:41:31.421Z,59.75
2023-03-29T17:43:59.910Z,59.94
2023-03-29T17:46:28.554Z,60.00
2023-03-29T17:48:59.222Z,60.05
2023-03-29T17:51:27.946Z,60.27
2023-03-29T17:53:57.416Z,60.46
2023-03-29T17:56:26.789Z,60.65
2023-03-29T17:58:55.266Z,60.59
2023-03-29T18:01:23.708Z,60.65
2023-03-29T18:03:59.656Z,60.59
2023-03-29T18:06:27.983Z,60.64
2023-03-29T18:09:01.720Z,60.58
2023-03-29T18:11:31.607Z,60.77
2023-03-29T18:14:01.245Z,60.78
2023-03-29T18:16:29.743Z,60.78
2023-03-29T18:18:58.173Z,60.83
2023-03-29T18:21:27.724Z,60.82
2023-03-29T18:23:57.008Z,61.04
2023-03-29T18:26:25.990Z,61.15
2023-03-29T18:28:54.421Z,61.18
2023-03-29T18:31:22.881Z,61.16
2023-03-29T18:33:51.639Z,61.39
2023-03-29T18:36:25.524Z,61.36
2023-03-29T18:38:56.224Z,61.52
2023-03-29T18:41:24.596Z,61.63
2023-03-29T18:43:54.938Z,61.71
2023-03-29T18:46:23.783Z,61.74
2023-03-29T18:48:53.528Z,61.73
2023-03-29T18:51:23.302Z,61.92
2023-03-29T18:53:53.141Z,62.13
2023-03-29T18:56:21.589Z,62.10
2023-03-29T18:58:49.821Z,62.38
2023-03-29T19:01:18.550Z,62.35
2023-03-29T19:03:49.416Z,62.47
2023-03-29T19:06:19.515Z,62.56
2023-03-29T19:08:47.899Z,62.71
2023-03-29T19:11:16.420Z,62.87
2023-03-29T19:13:46.945Z,62.92
2023-03-29T19:16:16.147Z,63.02
2023-03-29T19:18:44.815Z,63.26
2023-03-29T19:21:13.240Z,63.31
2023-03-29T19:23:41.994Z,63.40
2023-03-29T19:26:11.729Z,63.51
2023-03-29T19:28:40.141Z,63.64
2023-03-29T19:31:08.465Z,63.82
2023-03-29T19:33:36.786Z,63.99
2023-03-29T19:36:06.145Z,64.14
2023-03-29T19:38:34.928Z,64.25
2023-03-29T19:41:10.395Z,64.38
2023-03-29T19:43:38.747Z,64.48
2023-03-29T19:46:10.694Z,64.54
2023-03-29T19:48:41.947Z,64.73
2023-03-29T19:51:10.354Z,64.65
2023-03-29T19:53:39.875Z,64.76
2023-03-29T19:56:11.192Z,64.91
2023-03-29T19:58:39.670Z,64.86
2023-03-29T20:01:08.054Z,64.96
2023-03-29T20:03:36.643Z,65.09
2023-03-29T20:06:05.496Z,64.99
2023-03-29T20:08:36.458Z,65.03
2023-03-29T20:11:10.649Z,65.25
2023-03-29T20:13:42.066Z,65.23
2023-03-29T20:16:16.162Z,65.24
2023-03-29T20:18:45.689Z,65.30
2023-03-29T20:21:17.123Z,65.33
2023-03-29T20:23:46.038Z,65.32
2023-03-29T20:26:14.474Z,65.51
2023-03-29T20:28:42.832Z,65.48
2023-03-29T20:31:11.202Z,65.63
2023-03-29T20:33:41.507Z,65.67
2023-03-29T20:36:11.043Z,65.63
2023-03-29T20:38:39.423Z,65.79
2023-03-29T20:41:09.548Z,65.76
2023-03-29T20:43:38.133Z,65.79
2023-03-29T20:46:15.095Z,65.83
2023-03-29T20:48:53.476Z,65.86
2023-03-29T20:51:28.417Z,65.95
2023-03-29T20:54:04.996Z,65.94
2023-03-29T20:56:40.026Z,66.00
2023-03-29T20:59:11.004Z,66.02
2023-03-29T21:01:41.092Z,66.02
2023-03-29T21:04:11.213Z,66.21
2023-03-29T21:06:39.935Z,66.05
2023-03-29T21:09:08.777Z,66.25
2023-03-29T21:11:37.700Z,66.37
2023-03-29T21:14:06.176Z,66.31
2023-03-29T21:16:34.587Z,66.33
2023-03-29T21:19:02.821Z,66.32
2023-03-29T21:21:31.128Z,66.41
2023-03-29T21:23:59.484Z,66.50
2023-03-29T21:26:28.248Z,66.49
2023-03-29T21:28:56.517Z,66.72
2023-03-29T21:31:25.062Z,66.48
2023-03-29T21:33:56.461Z,66.64
2023-03-29T21:36:25.703Z,66.71
2023-03-29T21:38:54.178Z,66.63
2023-03-29T21:41:22.704Z,66.87
2023-03-29T21:43:51.307Z,66.80
2023-03-29T21:46:19.718Z,66.92
2023-03-29T21:48:48.015Z,66.92
2023-03-29T21:51:16.265Z,67.09
2023-03-29T21:53:44.551Z,67.13
2023-03-29T21:56:13.278Z,67.29
2023-03-29T21:58:42.052Z,67.27
2023-03-29T22:01:11.045Z,67.32
2023-03-29T22:03:39.479Z,67.46
2023-03-29T22:06:09.796Z,67.29
2023-03-29T22:08:39.159Z,67.39
2023-03-29T22:11:11.121Z,67.31
2023-03-29T22:13:39.931Z,67.53
2023-03-29T22:16:09.106Z,67.52
2023-03-29T22:18:49.760Z,67.43
2023-03-29T22:21:26.864Z,67.62
2023-03-29T22:23:56.709Z,67.74
2023-03-29T22:26:28.472Z,67.67
2023-03-29T22:28:59.099Z,67.94
2023-03-29T22:31:29.381Z,67.88
2023-03-29T22:33:58.826Z,67.86
2023-03-29T22:36:29.392Z,67.91
2023-03-29T22:38:58.485Z,67.89
2023-03-29T22:41:28.359Z,67.80
2023-03-29T22:43:58.677Z,68.30
2023-03-29T22:46:27.808Z,68.15
2023-03-29T22:48:56.570Z,68.13
2023-03-29T22:51:24.862Z,68.06
2023-03-29T22:53:53.432Z,68.30
2023-03-29T22:56:22.193Z,68.38
2023-03-29T22:58:50.788Z,68.57
2023-03-29T23:02:19.959Z,68.35
2023-03-29T23:06:09.502Z,68.45
2023-03-29T23:09:58.846Z,68.37
2023-03-29T23:13:49.496Z,68.64
2023-03-29T23:32:49.084Z,68.93
2023-03-29T23:36:38.335Z,68.87
2023-03-29T23:40:33.999Z,68.96
2023-03-29T23:56:14.441Z,69.10
